createdAt,value
2018-02-22T00:00:08.120Z,0
2018-02-22T00:01:17.588Z,0
2018-02-22T00:02:27.662Z,0
2018-02-22T00:03:37.261Z,0
2018-02-22T00:04:46.603Z,0
2018-02-22T00:05:55.824Z,0
2018-02-22T00:07:05.318Z,0
2018-02-22T00:08:14.839Z,0
2018-02-22T00:09:24.576Z,0
2018-02-22T00:10:34.049Z,0
2018-02-22T00:11:43.823Z,0
2018-02-22T00:12:53.954Z,0
2018-02-22T00:14:03.524Z,0
2018-02-22T00:15:12.973Z,0
2018-02-22T00:16:22.814Z,0
2018-02-22T00:17:32.358Z,0
2018-02-22T00:18:41.588Z,0
2018-02-22T00:19:51.040Z,0
2018-02-22T00:21:00.562Z,0
2018-02-22T00:22:09.751Z,0
2018-02-22T00:23:19.473Z,0
2018-02-22T00:24:29.574Z,0
2018-02-22T00:25:38.823Z,0
2018-02-22T00:26:49.002Z,0
2018-02-22T00:27:59.089Z,0
2018-02-22T00:29:08.308Z,0
2018-02-22T00:30:17.830Z,0
2018-02-22T00:31:27.922Z,0
2018-02-22T00:32:37.990Z,0
2018-02-22T00:33:47.288Z,0
2018-02-22T00:34:57.297Z,0
2018-02-22T00:36:07.243Z,0
2018-02-22T00:37:16.817Z,0
2018-02-22T00:38:26.534Z,0
2018-02-22T00:39:36.268Z,0
2018-02-22T00:40:46.150Z,0
2018-02-22T00:41:56.250Z,0
2018-02-22T00:43:05.848Z,0
2018-02-22T00:44:15.948Z,0
2018-02-22T00:45:25.579Z,0
2018-02-22T00:46:35.570Z,0
2018-02-22T00:47:45.550Z,0
2018-02-22T00:48:55.273Z,0
2018-02-22T00:50:05.025Z,0
2018-02-22T00:51:14.768Z,0
2018-02-22T00:52:24.758Z,0
2018-02-22T00:53:34.472Z,0
2018-02-22T00:54:43.388Z,0
2018-02-22T00:55:53.119Z,0
2018-02-22T00:57:02.879Z,0
2018-02-22T00:58:12.610Z,0
2018-02-22T00:59:22.171Z,0
2018-02-22T01:00:31.380Z,0
2018-02-22T01:01:41.371Z,0
2018-02-22T01:02:50.913Z,0
2018-02-22T01:04:00.919Z,0
2018-02-22T01:05:10.674Z,0
2018-02-22T01:06:20.189Z,0
2018-02-22T01:07:30.207Z,0
2018-02-22T01:08:39.394Z,0
2018-02-22T01:09:49.215Z,0
2018-02-22T01:10:58.967Z,0
2018-02-22T01:12:08.976Z,0
2018-02-22T01:13:18.718Z,0
2018-02-22T01:14:28.437Z,0
2018-02-22T01:15:38.164Z,0
2018-02-22T01:16:47.646Z,0
2018-02-22T01:17:57.367Z,0
2018-02-22T01:19:07.084Z,0
2018-02-22T01:20:16.832Z,0
2018-02-22T01:21:26.306Z,0
2018-02-22T01:22:35.759Z,0
2018-02-22T01:23:45.845Z,0
2018-02-22T01:24:55.602Z,0
2018-02-22T01:26:05.319Z,0
2018-02-22T01:27:15.047Z,0
2018-02-22T01:28:24.865Z,0
2018-02-22T01:29:34.641Z,0
2018-02-22T01:30:44.362Z,0
2018-02-22T01:31:54.351Z,0
2018-02-22T01:33:03.807Z,0
2018-02-22T01:34:13.567Z,0
2018-02-22T01:35:23.552Z,0
2018-02-22T01:36:33.544Z,0
2018-02-22T01:37:43.270Z,0
2018-02-22T01:38:52.999Z,0
2018-02-22T01:40:02.464Z,0
2018-02-22T01:41:12.289Z,0
2018-02-22T01:42:22.292Z,0
2018-02-22T01:43:32.401Z,0
2018-02-22T01:44:42.126Z,0
2018-02-22T01:45:51.855Z,0
2018-02-22T01:47:01.579Z,0
2018-02-22T01:48:11.029Z,0
2018-02-22T01:49:20.480Z,0
2018-02-22T01:50:30.221Z,0
2018-02-22T01:51:40.000Z,0
2018-02-22T01:52:49.742Z,0
2018-02-22T01:53:59.462Z,0
2018-02-22T01:55:08.921Z,0
2018-02-22T01:56:18.382Z,0
2018-02-22T01:57:28.374Z,0
2018-02-22T01:58:37.580Z,0
2018-02-22T01:59:46.811Z,0
2018-02-22T02:00:56.911Z,0
2018-02-22T02:02:06.636Z,0
2018-02-22T02:03:16.090Z,0
2018-02-22T02:04:26.091Z,0
2018-02-22T02:05:35.810Z,0
2018-02-22T02:06:44.749Z,0
2018-02-22T02:07:54.228Z,0
2018-02-22T02:09:03.686Z,0
2018-02-22T02:10:13.407Z,0
2018-02-22T02:11:23.405Z,0
2018-02-22T02:12:32.340Z,0
2018-02-22T02:13:42.070Z,0
2018-02-22T02:14:52.000Z,0
2018-02-22T02:16:01.795Z,0
2018-02-22T02:17:11.803Z,0
2018-02-22T02:18:21.260Z,0
2018-02-22T02:19:31.042Z,0
2018-02-22T02:20:40.872Z,0
2018-02-22T02:21:50.715Z,0
2018-02-22T02:23:00.164Z,0
2018-02-22T02:24:09.898Z,0
2018-02-22T02:25:19.633Z,0
2018-02-22T02:26:29.350Z,0
2018-02-22T02:27:38.826Z,0
2018-02-22T02:28:48.813Z,0
2018-02-22T02:29:58.272Z,0
2018-02-22T02:31:08.319Z,0
2018-02-22T02:32:18.125Z,0
2018-02-22T02:33:28.171Z,0
2018-02-22T02:34:37.920Z,0
2018-02-22T02:35:47.694Z,0
2018-02-22T02:36:57.245Z,0
2018-02-22T02:38:07.270Z,0
2018-02-22T02:39:17.322Z,0
2018-02-22T02:40:26.548Z,0
2018-02-22T02:41:36.289Z,0
2018-02-22T02:42:46.039Z,0
2018-02-22T02:43:55.759Z,0
2018-02-22T02:45:05.484Z,0
2018-02-22T02:46:15.249Z,0
2018-02-22T02:47:25.262Z,0
2018-02-22T02:48:34.826Z,0
2018-02-22T02:49:44.272Z,0
2018-02-22T02:50:54.268Z,0
2018-02-22T02:52:04.273Z,0
2018-02-22T02:53:14.354Z,0
2018-02-22T02:54:24.340Z,0
2018-02-22T02:55:34.385Z,0
2018-02-22T02:56:44.114Z,0
2018-02-22T02:57:53.570Z,0
2018-02-22T02:59:03.301Z,0
2018-02-22T03:00:13.368Z,0
2018-02-22T03:01:23.650Z,0
2018-02-22T03:02:33.651Z,0
2018-02-22T03:03:43.634Z,0
2018-02-22T03:04:53.359Z,0
2018-02-22T03:06:03.121Z,0
2018-02-22T03:07:12.844Z,0
2018-02-22T03:08:22.565Z,0
2018-02-22T03:09:32.012Z,0
2018-02-22T03:10:41.209Z,0
2018-02-22T03:11:50.714Z,0
2018-02-22T03:13:00.702Z,0
2018-02-22T03:14:10.459Z,0
2018-02-22T03:15:20.175Z,0
2018-02-22T03:16:29.901Z,0
2018-02-22T03:17:39.113Z,0
2018-02-22T03:18:48.843Z,0
2018-02-22T03:19:58.566Z,0
2018-02-22T03:21:08.062Z,0
2018-02-22T03:22:17.572Z,0
2018-02-22T03:23:27.305Z,0
2018-02-22T03:24:36.829Z,0
2018-02-22T03:25:46.543Z,0
2018-02-22T03:26:56.553Z,0
2018-02-22T03:28:06.549Z,0
2018-02-22T03:29:16.565Z,0
2018-02-22T03:30:26.381Z,0
2018-02-22T03:31:36.409Z,0
2018-02-22T03:32:46.158Z,0
2018-02-22T03:33:55.948Z,0
2018-02-22T03:35:05.701Z,0
2018-02-22T03:36:15.738Z,0
2018-02-22T03:37:25.190Z,0
2018-02-22T03:38:34.633Z,0
2018-02-22T03:39:44.355Z,0
2018-02-22T03:40:54.067Z,0
2018-02-22T03:42:03.781Z,0
2018-02-22T03:43:13.770Z,0
2018-02-22T03:44:23.232Z,0
2018-02-22T03:45:33.215Z,0
2018-02-22T03:46:43.235Z,0
2018-02-22T03:47:52.694Z,0
2018-02-22T03:49:02.799Z,0
2018-02-22T03:50:12.258Z,0
2018-02-22T03:51:22.249Z,0
2018-02-22T03:52:31.696Z,0
2018-02-22T03:53:41.531Z,0
2018-02-22T03:54:51.296Z,0
2018-02-22T03:56:00.764Z,0
2018-02-22T03:57:10.497Z,0
2018-02-22T03:58:20.491Z,0
2018-02-22T03:59:30.212Z,0
2018-02-22T04:00:39.679Z,0
2018-02-22T04:01:49.323Z,0
2018-02-22T04:02:59.049Z,0
2018-02-22T04:04:08.503Z,0
2018-02-22T04:05:17.970Z,0
2018-02-22T04:06:27.685Z,0
2018-02-22T04:07:37.414Z,0
2018-02-22T04:08:46.930Z,0
2018-02-22T04:09:56.382Z,0
2018-02-22T04:11:06.389Z,0
2018-02-22T04:12:16.118Z,0
2018-02-22T04:13:25.574Z,0
2018-02-22T04:14:35.301Z,0
2018-02-22T04:15:45.027Z,0
2018-02-22T04:16:54.470Z,0
2018-02-22T04:18:03.662Z,0
2018-02-22T04:19:13.647Z,0
2018-02-22T04:20:23.646Z,0
2018-02-22T04:21:33.625Z,0
2018-02-22T04:22:43.457Z,0
2018-02-22T04:23:53.488Z,0
2018-02-22T04:25:03.206Z,0
2018-02-22T04:26:12.122Z,0
2018-02-22T04:27:22.101Z,0
2018-02-22T04:28:31.556Z,0
2018-02-22T04:29:41.008Z,0
2018-02-22T04:30:50.993Z,0
2018-02-22T04:32:00.705Z,0
2018-02-22T04:33:10.417Z,0
2018-02-22T04:34:20.406Z,0
2018-02-22T04:35:29.858Z,0
2018-02-22T04:36:39.165Z,0
2018-02-22T04:37:48.388Z,0
2018-02-22T04:38:57.835Z,0
2018-02-22T04:40:07.283Z,0
2018-02-22T04:41:16.999Z,0
2018-02-22T04:42:26.704Z,0
2018-02-22T04:43:36.416Z,0
2018-02-22T04:44:46.391Z,0
2018-02-22T04:45:55.838Z,0
2018-02-22T04:47:05.549Z,0
2018-02-22T04:48:15.280Z,0
2018-02-22T04:49:24.994Z,0
2018-02-22T04:50:34.791Z,0
2018-02-22T04:51:44.510Z,0
2018-02-22T04:52:53.962Z,0
2018-02-22T04:54:03.409Z,0
2018-02-22T04:55:13.123Z,0
2018-02-22T04:56:23.107Z,0
2018-02-22T04:57:32.839Z,0
2018-02-22T04:58:42.289Z,0
2018-02-22T04:59:51.754Z,0
2018-02-22T05:01:01.465Z,0
2018-02-22T05:02:11.219Z,0
2018-02-22T05:03:20.931Z,0
2018-02-22T05:04:30.381Z,0
2018-02-22T05:05:40.367Z,0
2018-02-22T05:06:49.812Z,0
2018-02-22T05:07:59.262Z,0
2018-02-22T05:09:08.992Z,0
2018-02-22T05:10:18.706Z,0
2018-02-22T05:11:28.435Z,0
2018-02-22T05:12:38.153Z,0
2018-02-22T05:13:47.072Z,0
2018-02-22T05:14:56.807Z,0
2018-02-22T05:16:05.724Z,0
2018-02-22T05:17:15.705Z,0
2018-02-22T05:18:25.419Z,0
2018-02-22T05:19:35.141Z,0
2018-02-22T05:20:45.129Z,0
2018-02-22T05:21:54.598Z,0
2018-02-22T05:23:04.315Z,0
2018-02-22T05:24:14.047Z,4
2018-02-22T05:25:23.763Z,4
2018-02-22T05:26:33.211Z,4
2018-02-22T05:27:43.195Z,4
2018-02-22T05:28:53.176Z,4
2018-02-22T05:30:02.638Z,4
2018-02-22T05:31:11.818Z,4
2018-02-22T05:32:21.264Z,4
2018-02-22T05:33:31.003Z,4
2018-02-22T05:34:40.451Z,4
2018-02-22T05:35:50.160Z,4
2018-02-22T05:37:00.070Z,4
2018-02-22T05:38:09.796Z,4
2018-02-22T05:39:19.782Z,4
2018-02-22T05:40:29.763Z,4
2018-02-22T05:41:39.485Z,4
2018-02-22T05:42:49.468Z,4
2018-02-22T05:43:59.191Z,4
2018-02-22T05:45:09.178Z,4
2018-02-22T05:46:18.900Z,4
2018-02-22T05:47:28.350Z,4
2018-02-22T05:48:38.067Z,4
2018-02-22T05:49:47.780Z,4
2018-02-22T05:50:57.497Z,4
2018-02-22T05:52:07.245Z,4
2018-02-22T05:53:16.695Z,4
2018-02-22T05:54:26.420Z,4
2018-02-22T05:55:36.143Z,4
2018-02-22T05:56:45.592Z,4
2018-02-22T05:57:55.040Z,4
2018-02-22T05:59:05.021Z,0
2018-02-22T06:00:14.473Z,0
2018-02-22T06:01:23.927Z,4
2018-02-22T06:02:33.684Z,4
2018-02-22T06:03:43.502Z,4
2018-02-22T06:04:53.483Z,4
2018-02-22T06:06:02.409Z,4
2018-02-22T06:07:12.393Z,4
2018-02-22T06:08:22.226Z,8
2018-02-22T06:09:31.988Z,8
2018-02-22T06:10:41.713Z,4
2018-02-22T06:11:51.170Z,8
2018-02-22T06:13:00.356Z,12
2018-02-22T06:14:09.538Z,12
2018-02-22T06:15:18.997Z,12
2018-02-22T06:16:28.189Z,16
2018-02-22T06:17:37.909Z,16
2018-02-22T06:18:47.095Z,20
2018-02-22T06:19:56.880Z,24
2018-02-22T06:21:06.392Z,28
2018-02-22T06:22:16.407Z,32
2018-02-22T06:23:25.934Z,36
2018-02-22T06:24:35.648Z,40
2018-02-22T06:25:44.833Z,48
2018-02-22T06:26:54.050Z,56
2018-02-22T06:28:03.801Z,64
2018-02-22T06:29:13.016Z,72
2018-02-22T06:30:22.748Z,80
2018-02-22T06:31:32.733Z,92
2018-02-22T06:32:42.221Z,104
2018-02-22T06:33:51.984Z,116
2018-02-22T06:35:01.981Z,132
2018-02-22T06:36:11.440Z,144
2018-02-22T06:37:20.893Z,156
2018-02-22T06:38:31.135Z,172
2018-02-22T06:39:40.464Z,188
2018-02-22T06:40:49.923Z,204
2018-02-22T06:41:59.404Z,224
2018-02-22T06:43:09.199Z,244
2018-02-22T06:44:18.931Z,268
2018-02-22T06:45:28.648Z,288
2018-02-22T06:46:38.101Z,308
2018-02-22T06:47:47.840Z,336
2018-02-22T06:48:57.873Z,360
2018-02-22T06:50:07.589Z,384
2018-02-22T06:51:17.077Z,408
2018-02-22T06:52:26.605Z,432
2018-02-22T06:53:36.088Z,452
2018-02-22T06:54:45.554Z,476
2018-02-22T06:55:55.284Z,504
2018-02-22T06:57:05.091Z,528
2018-02-22T06:58:14.539Z,552
2018-02-22T06:59:23.998Z,576
2018-02-22T07:00:33.461Z,600
2018-02-22T07:01:43.534Z,624
2018-02-22T07:02:52.983Z,644
2018-02-22T07:04:02.712Z,668
2018-02-22T07:05:12.422Z,692
2018-02-22T07:06:22.138Z,716
2018-02-22T07:07:32.126Z,736
2018-02-22T07:08:41.867Z,756
2018-02-22T07:09:51.320Z,780
2018-02-22T07:11:01.032Z,804
2018-02-22T07:12:10.742Z,828
2018-02-22T07:13:20.733Z,844
2018-02-22T07:14:30.504Z,868
2018-02-22T07:15:40.297Z,888
2018-02-22T07:16:50.335Z,908
2018-02-22T07:17:59.578Z,928
2018-02-22T07:19:09.624Z,952
2018-02-22T07:20:19.654Z,972
2018-02-22T07:21:29.434Z,992
2018-02-22T07:22:38.906Z,1008
2018-02-22T07:23:48.966Z,1024
2018-02-22T07:24:58.460Z,1040
2018-02-22T07:26:08.472Z,1052
2018-02-22T07:27:17.937Z,1080
2018-02-22T07:28:27.405Z,1096
2018-02-22T07:29:36.594Z,1112
2018-02-22T07:30:46.319Z,1128
2018-02-22T07:31:56.036Z,1136
2018-02-22T07:33:05.756Z,1156
2018-02-22T07:34:15.887Z,1164
2018-02-22T07:35:25.331Z,1172
2018-02-22T07:36:34.809Z,1188
2018-02-22T07:37:44.561Z,1216
2018-02-22T07:38:54.380Z,1240
2018-02-22T07:40:03.614Z,1256
2018-02-22T07:41:13.376Z,1276
2018-02-22T07:42:23.126Z,1272
2018-02-22T07:43:32.569Z,1300
2018-02-22T07:44:42.583Z,1312
2018-02-22T07:45:52.309Z,1320
2018-02-22T07:47:01.759Z,1332
2018-02-22T07:48:11.473Z,1348
2018-02-22T07:49:21.188Z,1364
2018-02-22T07:50:31.164Z,1376
2018-02-22T07:51:40.907Z,1396
2018-02-22T07:52:49.836Z,1412
2018-02-22T07:53:58.751Z,1428
2018-02-22T07:55:08.210Z,1444
2018-02-22T07:56:17.663Z,1464
2018-02-22T07:57:27.661Z,1472
2018-02-22T07:58:36.575Z,1492
2018-02-22T07:59:46.568Z,1500
2018-02-22T08:00:56.015Z,1512
2018-02-22T08:02:05.465Z,1520
2018-02-22T08:03:15.189Z,1532
2018-02-22T08:04:24.911Z,1540
2018-02-22T08:05:34.425Z,1552
2018-02-22T08:06:44.112Z,1556
2018-02-22T08:07:53.835Z,1572
2018-02-22T08:09:03.620Z,1580
2018-02-22T08:10:13.614Z,1588
2018-02-22T08:11:23.068Z,1596
2018-02-22T08:12:32.519Z,1604
2018-02-22T08:13:41.714Z,1616
2018-02-22T08:14:51.688Z,1628
2018-02-22T08:16:01.147Z,1636
2018-02-22T08:17:10.945Z,1648
2018-02-22T08:18:20.658Z,1656
2018-02-22T08:19:30.391Z,1664
2018-02-22T08:20:40.121Z,1656
2018-02-22T08:21:50.116Z,1664
2018-02-22T08:22:59.834Z,1672
2018-02-22T08:24:09.832Z,1684
2018-02-22T08:25:19.282Z,1688
2018-02-22T08:26:28.786Z,1692
2018-02-22T08:27:38.244Z,1692
2018-02-22T08:28:48.234Z,1696
2018-02-22T08:29:57.957Z,1704
2018-02-22T08:31:07.674Z,1716
2018-02-22T08:32:17.692Z,1660
2018-02-22T08:33:27.136Z,1732
2018-02-22T08:34:37.116Z,1732
2018-02-22T08:35:46.572Z,1744
2018-02-22T08:36:56.017Z,1752
2018-02-22T08:38:05.509Z,1760
2018-02-22T08:39:15.015Z,1768
2018-02-22T08:40:24.737Z,1776
2018-02-22T08:41:34.734Z,1784
2018-02-22T08:42:44.298Z,1788
2018-02-22T08:43:54.012Z,1796
2018-02-22T08:45:03.745Z,1804
2018-02-22T08:46:13.222Z,1808
2018-02-22T08:47:22.966Z,1820
2018-02-22T08:48:33.047Z,1824
2018-02-22T08:49:42.786Z,1832
2018-02-22T08:50:52.502Z,1836
2018-02-22T08:52:02.296Z,1844
2018-02-22T08:53:12.015Z,1848
2018-02-22T08:54:21.730Z,1852
2018-02-22T08:55:31.441Z,1856
2018-02-22T08:56:40.887Z,1868
2018-02-22T08:57:50.348Z,1876
2018-02-22T08:59:00.329Z,1880
2018-02-22T09:00:10.052Z,1884
2018-02-22T09:01:20.045Z,1888
2018-02-22T09:02:30.079Z,1896
2018-02-22T09:03:39.540Z,1908
2018-02-22T09:04:49.521Z,1916
2018-02-22T09:05:59.244Z,1924
2018-02-22T09:07:09.265Z,1928
2018-02-22T09:08:19.359Z,1928
2018-02-22T09:09:28.565Z,1944
2018-02-22T09:10:38.319Z,1952
2018-02-22T09:11:47.777Z,1960
2018-02-22T09:12:57.255Z,1968
2018-02-22T09:14:06.995Z,1988
2018-02-22T09:15:16.983Z,1996
2018-02-22T09:16:26.963Z,2000
2018-02-22T09:17:36.681Z,1996
2018-02-22T09:18:46.406Z,2000
2018-02-22T09:19:56.133Z,2004
2018-02-22T09:21:05.320Z,2012
2018-02-22T09:22:14.784Z,2020
2018-02-22T09:23:24.765Z,2032
2018-02-22T09:24:34.486Z,2028
2018-02-22T09:25:44.207Z,2040
2018-02-22T09:26:53.655Z,2044
2018-02-22T09:28:03.644Z,2040
2018-02-22T09:29:13.134Z,2048
2018-02-22T09:30:23.194Z,2064
2018-02-22T09:31:32.912Z,2060
2018-02-22T09:32:42.372Z,2068
2018-02-22T09:33:52.092Z,2084
2018-02-22T09:35:01.812Z,2092
2018-02-22T09:36:11.802Z,2100
2018-02-22T09:37:21.309Z,2104
2018-02-22T09:38:30.769Z,2104
2018-02-22T09:39:40.496Z,2112
2018-02-22T09:40:49.972Z,2116
2018-02-22T09:41:59.690Z,2136
2018-02-22T09:43:09.150Z,2148
2018-02-22T09:44:19.012Z,2128
2018-02-22T09:45:28.789Z,2144
2018-02-22T09:46:38.087Z,2164
2018-02-22T09:47:48.170Z,2156
2018-02-22T09:48:58.173Z,2168
2018-02-22T09:50:07.373Z,2172
2018-02-22T09:51:17.389Z,2176
2018-02-22T09:52:27.150Z,2196
2018-02-22T09:53:36.603Z,2216
2018-02-22T09:54:46.324Z,2252
2018-02-22T09:55:55.822Z,2340
2018-02-22T09:57:05.025Z,2360
2018-02-22T09:58:14.497Z,2404
2018-02-22T09:59:23.949Z,2380
2018-02-22T10:00:33.690Z,2420
2018-02-22T10:01:43.408Z,2424
2018-02-22T10:02:53.128Z,2460
2018-02-22T10:04:02.848Z,2448
2018-02-22T10:05:12.843Z,2484
2018-02-22T10:06:23.013Z,2448
2018-02-22T10:07:32.827Z,2292
2018-02-22T10:08:42.866Z,2416
2018-02-22T10:09:52.318Z,2516
2018-02-22T10:11:02.304Z,2500
2018-02-22T10:12:11.762Z,2540
2018-02-22T10:13:21.754Z,2532
2018-02-22T10:14:31.489Z,2484
2018-02-22T10:15:41.246Z,2580
2018-02-22T10:16:50.508Z,2564
2018-02-22T10:18:00.001Z,2540
2018-02-22T10:19:09.780Z,2632
2018-02-22T10:20:19.529Z,2612
2018-02-22T10:21:29.246Z,2508
2018-02-22T10:22:38.697Z,2620
2018-02-22T10:23:47.622Z,2604
2018-02-22T10:24:57.078Z,2668
2018-02-22T10:26:07.081Z,2664
2018-02-22T10:27:16.642Z,2476
2018-02-22T10:28:26.402Z,2668
2018-02-22T10:29:36.252Z,2732
2018-02-22T10:30:46.085Z,2664
2018-02-22T10:31:55.536Z,2756
2018-02-22T10:33:05.396Z,2752
2018-02-22T10:34:15.605Z,2756
2018-02-22T10:35:25.120Z,2752
2018-02-22T10:36:34.623Z,2764
2018-02-22T10:37:44.352Z,2796
2018-02-22T10:38:54.582Z,2796
2018-02-22T10:40:04.053Z,2804
2018-02-22T10:41:13.522Z,2772
2018-02-22T10:42:23.254Z,2848
2018-02-22T10:43:32.529Z,2832
2018-02-22T10:44:42.356Z,2744
2018-02-22T10:45:51.324Z,2884
2018-02-22T10:47:00.797Z,2884
2018-02-22T10:48:10.317Z,2952
2018-02-22T10:49:20.180Z,3004
2018-02-22T10:50:30.193Z,3064
2018-02-22T10:51:40.209Z,3048
2018-02-22T10:52:49.938Z,2948
2018-02-22T10:53:59.149Z,3048
2018-02-22T10:55:08.882Z,3088
2018-02-22T10:56:18.342Z,3096
2018-02-22T10:57:27.892Z,3064
2018-02-22T10:58:37.349Z,3064
2018-02-22T10:59:46.821Z,3088
2018-02-22T11:00:56.014Z,3040
2018-02-22T11:02:06.018Z,3080
2018-02-22T11:03:15.767Z,3132
2018-02-22T11:04:25.492Z,3148
2018-02-22T11:05:35.228Z,3192
2018-02-22T11:06:44.418Z,3048
2018-02-22T11:07:54.412Z,3336
2018-02-22T11:09:04.166Z,3272
2018-02-22T11:10:14.157Z,2304
2018-02-22T11:11:23.608Z,3424
2018-02-22T11:12:33.411Z,3368
2018-02-22T11:13:43.152Z,2216
2018-02-22T11:14:52.870Z,3292
2018-02-22T11:16:02.324Z,3396
2018-02-22T11:17:12.524Z,3352
2018-02-22T11:18:21.979Z,3356
2018-02-22T11:19:30.951Z,3316
2018-02-22T11:20:40.670Z,3348
2018-02-22T11:21:49.934Z,3432
2018-02-22T11:22:59.391Z,2640
2018-02-22T11:24:09.113Z,3500
2018-02-22T11:25:18.836Z,3532
2018-02-22T11:26:28.291Z,3492
2018-02-22T11:27:38.011Z,3244
2018-02-22T11:28:46.929Z,3392
2018-02-22T11:29:56.656Z,3524
2018-02-22T11:31:06.109Z,3444
2018-02-22T11:32:15.826Z,3104
2018-02-22T11:33:25.379Z,3492
2018-02-22T11:34:35.121Z,3464
2018-02-22T11:35:44.839Z,3420
2018-02-22T11:36:54.821Z,3444
2018-02-22T11:38:04.546Z,3004
2018-02-22T11:39:14.533Z,2776
2018-02-22T11:40:24.577Z,3096
2018-02-22T11:41:34.351Z,3452
2018-02-22T11:42:44.072Z,3596
2018-02-22T11:43:53.265Z,3528
2018-02-22T11:45:03.294Z,3524
2018-02-22T11:46:13.282Z,2480
2018-02-22T11:47:23.280Z,3488
2018-02-22T11:48:33.269Z,3440
2018-02-22T11:49:42.990Z,3444
2018-02-22T11:50:52.183Z,3516
2018-02-22T11:52:01.932Z,3420
2018-02-22T11:53:11.927Z,3528
2018-02-22T11:54:21.920Z,3520
2018-02-22T11:55:31.376Z,3516
2018-02-22T11:56:41.094Z,3432
2018-02-22T11:57:50.289Z,3552
2018-02-22T11:58:59.751Z,3500
2018-02-22T12:00:09.469Z,3496
2018-02-22T12:01:19.188Z,2864
2018-02-22T12:02:28.904Z,3604
2018-02-22T12:03:38.627Z,3524
2018-02-22T12:04:48.086Z,3628
2018-02-22T12:05:57.278Z,3484
2018-02-22T12:07:07.283Z,3656
2018-02-22T12:08:17.012Z,3648
2018-02-22T12:09:26.497Z,2696
2018-02-22T12:10:36.479Z,3516
2018-02-22T12:11:45.685Z,3528
2018-02-22T12:12:55.149Z,3536
2018-02-22T12:14:04.870Z,3604
2018-02-22T12:15:14.896Z,3736
2018-02-22T12:16:24.389Z,3676
2018-02-22T12:17:33.903Z,3632
2018-02-22T12:18:43.697Z,3528
2018-02-22T12:19:53.156Z,3448
2018-02-22T12:21:02.623Z,3560
2018-02-22T12:22:12.615Z,3504
2018-02-22T12:23:22.143Z,3556
2018-02-22T12:24:31.988Z,3556
2018-02-22T12:25:41.710Z,3560
2018-02-22T12:26:51.709Z,3552
2018-02-22T12:28:01.164Z,3552
2018-02-22T12:29:10.904Z,3652
2018-02-22T12:30:20.954Z,3688
2018-02-22T12:31:30.976Z,3668
2018-02-22T12:32:40.708Z,3656
2018-02-22T12:33:49.914Z,3700
2018-02-22T12:34:59.652Z,3756
2018-02-22T12:36:09.389Z,3772
2018-02-22T12:37:19.493Z,3768
2018-02-22T12:38:29.007Z,3808
2018-02-22T12:39:38.837Z,3812
2018-02-22T12:40:48.566Z,3856
2018-02-22T12:41:58.028Z,3852
2018-02-22T12:43:07.750Z,3844
2018-02-22T12:44:17.478Z,3900
2018-02-22T12:45:27.267Z,3856
2018-02-22T12:46:37.016Z,3900
2018-02-22T12:47:46.765Z,3928
2018-02-22T12:48:56.297Z,3940
2018-02-22T12:50:06.015Z,3908
2018-02-22T12:51:15.745Z,3940
2018-02-22T12:52:25.507Z,3948
2018-02-22T12:53:34.736Z,3952
2018-02-22T12:54:45.528Z,3984
2018-02-22T12:55:55.305Z,3968
2018-02-22T12:57:05.302Z,4024
2018-02-22T12:58:15.372Z,4008
2018-02-22T12:59:25.444Z,3984
2018-02-22T13:00:35.201Z,4032
2018-02-22T13:01:44.464Z,4036
2018-02-22T13:02:54.272Z,4028
2018-02-22T13:04:03.724Z,4052
2018-02-22T13:05:13.206Z,4056
2018-02-22T13:06:22.416Z,4060
2018-02-22T13:07:32.215Z,4088
2018-02-22T13:08:41.831Z,4136
2018-02-22T13:09:51.288Z,4108
2018-02-22T13:11:00.515Z,4104
2018-02-22T13:12:10.083Z,4136
2018-02-22T13:13:20.101Z,4104
2018-02-22T13:14:29.374Z,4152
2018-02-22T13:15:39.373Z,4132
2018-02-22T13:16:49.122Z,4176
2018-02-22T13:17:58.585Z,4172
2018-02-22T13:19:08.040Z,4204
2018-02-22T13:20:17.849Z,4232
2018-02-22T13:21:27.137Z,4196
2018-02-22T13:22:36.624Z,4200
2018-02-22T13:23:46.377Z,4208
2018-02-22T13:24:55.560Z,4220
2018-02-22T13:26:04.747Z,4212
2018-02-22T13:27:13.974Z,4204
2018-02-22T13:28:24.017Z,4216
2018-02-22T13:29:33.741Z,4208
2018-02-22T13:30:43.463Z,4208
2018-02-22T13:31:53.463Z,4208
2018-02-22T13:33:02.917Z,4212
2018-02-22T13:34:12.377Z,4204
2018-02-22T13:35:22.105Z,4228
2018-02-22T13:36:31.566Z,4200
2018-02-22T13:37:41.057Z,4184
2018-02-22T13:38:50.257Z,4224
2018-02-22T13:39:59.983Z,4184
2018-02-22T13:41:09.701Z,4180
2018-02-22T13:42:18.900Z,4204
2018-02-22T13:43:28.352Z,4172
2018-02-22T13:44:37.598Z,4204
2018-02-22T13:45:47.601Z,4148
2018-02-22T13:46:57.377Z,4184
2018-02-22T13:48:07.101Z,4172
2018-02-22T13:49:16.843Z,4240
2018-02-22T13:50:26.824Z,4260
2018-02-22T13:51:36.557Z,4224
2018-02-22T13:52:46.641Z,4240
2018-02-22T13:53:56.111Z,4228
2018-02-22T13:55:05.644Z,4212
2018-02-22T13:56:15.659Z,4232
2018-02-22T13:57:25.679Z,4220
2018-02-22T13:58:35.164Z,4172
2018-02-22T13:59:45.165Z,4232
2018-02-22T14:00:54.900Z,4200
2018-02-22T14:02:04.651Z,4284
2018-02-22T14:03:13.845Z,4216
2018-02-22T14:04:23.388Z,4224
2018-02-22T14:05:33.157Z,4232
2018-02-22T14:06:42.397Z,4216
2018-02-22T14:07:52.418Z,4244
2018-02-22T14:09:02.163Z,4272
2018-02-22T14:10:11.094Z,4224
2018-02-22T14:11:21.099Z,4264
2018-02-22T14:12:31.096Z,4280
2018-02-22T14:13:40.289Z,4268
2018-02-22T14:14:50.014Z,4264
2018-02-22T14:15:58.937Z,4256
2018-02-22T14:17:08.396Z,4308
2018-02-22T14:18:18.164Z,4312
2018-02-22T14:19:27.358Z,4316
2018-02-22T14:20:37.372Z,4324
2018-02-22T14:21:47.098Z,4352
2018-02-22T14:22:56.331Z,4320
2018-02-22T14:24:06.069Z,4320
2018-02-22T14:25:15.298Z,4332
2018-02-22T14:26:24.808Z,4352
2018-02-22T14:27:34.265Z,4288
2018-02-22T14:28:44.252Z,4292
2018-02-22T14:29:54.252Z,4160
2018-02-22T14:31:04.349Z,4288
2018-02-22T14:32:13.855Z,4164
2018-02-22T14:33:23.363Z,4208
2018-02-22T14:34:33.087Z,4104
2018-02-22T14:35:42.550Z,4220
2018-02-22T14:36:52.338Z,4172
2018-02-22T14:38:02.117Z,4132
2018-02-22T14:39:11.577Z,4160
2018-02-22T14:40:21.303Z,4164
2018-02-22T14:41:30.765Z,4116
2018-02-22T14:42:40.522Z,4068
2018-02-22T14:43:50.245Z,4036
2018-02-22T14:45:00.267Z,4000
2018-02-22T14:46:10.272Z,3996
2018-02-22T14:47:20.363Z,4000
2018-02-22T14:48:30.358Z,3980
2018-02-22T14:49:39.814Z,3996
2018-02-22T14:50:49.877Z,3888
2018-02-22T14:51:59.336Z,3848
2018-02-22T14:53:09.059Z,3804
2018-02-22T14:54:18.523Z,3784
2018-02-22T14:55:28.512Z,3732
2018-02-22T14:56:37.976Z,3736
2018-02-22T14:57:48.037Z,3756
2018-02-22T14:58:57.809Z,3720
2018-02-22T15:00:07.005Z,3688
2018-02-22T15:01:16.462Z,3612
2018-02-22T15:02:26.266Z,3568
2018-02-22T15:03:36.113Z,3624
2018-02-22T15:04:45.845Z,3632
2018-02-22T15:05:55.572Z,3656
2018-02-22T15:07:05.294Z,3628
2018-02-22T15:08:15.101Z,3648
2018-02-22T15:09:24.873Z,3592
2018-02-22T15:10:34.075Z,3560
2018-02-22T15:11:43.274Z,3444
2018-02-22T15:12:52.997Z,3380
2018-02-22T15:14:02.471Z,3436
2018-02-22T15:15:12.469Z,3436
2018-02-22T15:16:21.959Z,3368
2018-02-22T15:17:31.426Z,3312
2018-02-22T15:18:41.160Z,3372
2018-02-22T15:19:51.150Z,3392
2018-02-22T15:21:01.180Z,3316
2018-02-22T15:22:10.685Z,3268
2018-02-22T15:23:20.743Z,3248
2018-02-22T15:24:30.479Z,3156
2018-02-22T15:25:40.203Z,3132
2018-02-22T15:26:49.934Z,3160
2018-02-22T15:27:59.394Z,3180
2018-02-22T15:29:09.410Z,3168
2018-02-22T15:30:19.155Z,3096
2018-02-22T15:31:28.450Z,3076
2018-02-22T15:32:38.170Z,3092
2018-02-22T15:33:48.262Z,3000
2018-02-22T15:34:57.986Z,2952
2018-02-22T15:36:07.770Z,2848
2018-02-22T15:37:17.512Z,2784
2018-02-22T15:38:27.253Z,2684
2018-02-22T15:39:37.418Z,2640
2018-02-22T15:40:46.881Z,2688
2018-02-22T15:41:56.884Z,2620
2018-02-22T15:43:06.368Z,2580
2018-02-22T15:44:16.111Z,2540
2018-02-22T15:45:26.182Z,2452
2018-02-22T15:46:35.639Z,2480
2018-02-22T15:47:45.362Z,2456
2018-02-22T15:48:55.097Z,2420
2018-02-22T15:50:04.839Z,2392
2018-02-22T15:51:14.594Z,2364
2018-02-22T15:52:24.095Z,2280
2018-02-22T15:53:33.815Z,1624
2018-02-22T15:54:43.812Z,2340
2018-02-22T15:55:53.269Z,2344
2018-02-22T15:57:03.021Z,2388
2018-02-22T15:58:12.733Z,2336
2018-02-22T15:59:22.716Z,2252
2018-02-22T16:00:32.708Z,2088
2018-02-22T16:01:41.908Z,2004
2018-02-22T16:02:51.623Z,1952
2018-02-22T16:04:01.495Z,1852
2018-02-22T16:05:10.966Z,1796
2018-02-22T16:06:20.702Z,1728
2018-02-22T16:07:30.166Z,1672